Time;durP1;ratioP1;P1;durP2;ratioP2;P2;SDS_P1;SDS_P2;PMS_P1;PMS_P2;Temp;Humidity;BMP_temperature;BMP_pressure;BME280_temperature;BME280_humidity;BME280_pressure;Samples;Min_cycle;Max_cycle;Signal;HPM_P1;HPM_P2
2021/04/26 00:00:34;;;;;;;3.40;1.90;;;;;;;5.09;67.46;98458.50;5092469;28;20245;-69
2021/04/26 00:03:00;;;;;;;4.17;2.13;;;;;;;5.18;66.92;98455.47;5092648;28;20213;-67
2021/04/26 00:05:27;;;;;;;4.57;2.27;;;;;;;5.16;66.05;98459.94;5091204;28;20235;-67
2021/04/26 00:07:54;;;;;;;4.73;2.10;;;;;;;5.21;65.93;98456.22;5092822;28;20234;-68
2021/04/26 00:10:20;;;;;;;3.27;1.83;;;;;;;5.28;65.52;98449.81;5092790;28;20217;-66
2021/04/26 00:12:47;;;;;;;4.30;2.30;;;;;;;5.21;65.97;98443.13;5092378;28;20217;-69
2021/04/26 00:15:17;;;;;;;3.57;2.00;;;;;;;5.06;67.40;98450.78;5092510;28;20215;-69
2021/04/26 00:17:43;;;;;;;3.70;2.13;;;;;;;4.86;69.00;98454.25;5092970;28;20212;-70
2021/04/26 00:20:11;;;;;;;3.80;2.17;;;;;;;4.76;70.01;98445.06;5092645;28;20237;-69
2021/04/26 00:22:38;;;;;;;4.07;2.13;;;;;;;4.63;70.42;98446.47;5092808;28;20207;-70
2021/04/26 00:25:06;;;;;;;3.27;2.40;;;;;;;4.80;68.71;98435.31;5095972;28;20679;-70
2021/04/26 00:27:32;;;;;;;3.23;2.20;;;;;;;4.99;67.74;98431.00;5096299;28;20293;-68
2021/04/26 00:29:59;;;;;;;2.60;2.20;;;;;;;5.12;67.05;98427.78;5096441;28;20265;-70
2021/04/26 00:32:25;;;;;;;4.00;2.40;;;;;;;5.00;68.34;98423.06;5094472;28;20204;-72
2021/04/26 00:34:51;;;;;;;3.37;2.30;;;;;;;5.05;66.90;98415.88;5096248;28;20420;-71
2021/04/26 00:37:17;;;;;;;3.40;2.40;;;;;;;5.15;66.96;98409.34;5096284;28;20209;-70
2021/04/26 00:39:43;;;;;;;2.33;2.13;;;;;;;5.12;67.36;98401.59;5096007;28;20213;-71
2021/04/26 00:42:09;;;;;;;3.80;2.10;;;;;;;5.06;68.12;98399.25;5095944;28;20301;-71
2021/04/26 00:44:35;;;;;;;2.97;2.67;;;;;;;4.98;69.25;98403.97;5095880;28;20209;-71
2021/04/26 00:47:02;;;;;;;3.90;2.37;;;;;;;4.81;70.33;98406.44;5095895;28;20210;-71
2021/04/26 00:49:28;;;;;;;3.13;2.60;;;;;;;4.57;71.92;98409.22;5095556;28;20208;-70
2021/04/26 00:51:54;;;;;;;4.90;2.63;;;;;;;4.36;73.77;98404.84;5095576;28;20212;-70
2021/04/26 00:54:20;;;;;;;6.20;2.90;;;;;;;4.22;74.69;98400.16;5095748;28;20209;-71
2021/04/26 00:56:47;;;;;;;3.63;2.70;;;;;;;4.05;76.25;98394.78;5093665;28;20679;-71
2021/04/26 00:59:13;;;;;;;6.00;3.37;;;;;;;3.98;76.40;98390.69;5095028;28;20252;-71
2021/04/26 01:01:39;;;;;;;5.77;3.30;;;;;;;3.98;76.61;98385.44;5095311;28;20641;-71
2021/04/26 01:04:06;;;;;;;6.47;2.63;;;;;;;3.96;76.83;98382.03;5095260;28;20249;-71
2021/04/26 01:06:32;;;;;;;3.77;2.70;;;;;;;3.91;77.57;98376.13;5095174;28;20676;-71
2021/04/26 01:08:58;;;;;;;6.10;3.37;;;;;;;3.99;77.42;98365.38;5095353;28;20207;-71
2021/04/26 01:11:34;;;;;;;6.20;3.10;;;;;;;4.11;77.01;98360.53;5095379;28;20212;-71
2021/04/26 01:14:07;;;;;;;5.33;2.73;;;;;;;4.12;77.40;98361.38;5095142;28;20234;-67
2021/04/26 01:16:37;;;;;;;7.10;3.37;;;;;;;4.06;77.53;98367.72;5095330;28;20341;-67
2021/04/26 01:19:11;;;;;;;5.20;3.80;;;;;;;4.02;78.39;98360.88;5094915;28;20218;-66
2021/04/26 01:22:21;;;;;;;6.57;3.80;;;;;;;3.95;79.22;98348.97;5096552;28;20232;-66
2021/04/26 01:25:00;;;;;;;5.70;3.37;;;;;;;4.00;79.98;98347.03;5096866;28;20272;-66
2021/04/26 01:28:05;;;;;;;4.80;3.30;;;;;;;3.91;80.51;98342.16;5094946;28;20212;-66
2021/04/26 01:30:37;;;;;;;6.13;3.73;;;;;;;3.86;81.06;98333.63;5082582;28;20220;-66
2021/04/26 01:33:08;;;;;;;6.60;3.30;;;;;;;3.90;80.81;98334.34;5095031;28;20211;-66
2021/04/26 01:35:35;;;;;;;5.00;3.53;;;;;;;3.88;80.73;98341.41;5094692;28;20236;-67
2021/04/26 01:38:08;;;;;;;4.80;3.50;;;;;;;3.76;81.53;98337.53;5094691;28;20588;-65
2021/04/26 01:40:35;;;;;;;6.30;4.07;;;;;;;3.69;82.45;98330.84;5094565;28;20238;-66
2021/04/26 01:43:03;;;;;;;6.97;3.87;;;;;;;3.65;83.01;98339.72;5094602;28;20215;-66
2021/04/26 01:45:30;;;;;;;4.97;3.87;;;;;;;3.59;83.40;98331.25;5094468;28;20680;-65
2021/04/26 01:47:58;;;;;;;6.00;3.90;;;;;;;3.53;83.74;98332.34;5094286;28;20207;-67
2021/04/26 01:50:26;;;;;;;4.37;3.50;;;;;;;3.53;83.69;98332.34;5092977;28;20214;-67
2021/04/26 01:52:53;;;;;;;6.97;4.10;;;;;;;3.45;83.82;98326.56;5094342;28;20242;-68
2021/04/26 01:55:21;;;;;;;4.77;3.77;;;;;;;3.34;84.93;98331.34;5094388;28;20656;-68
2021/04/26 01:57:48;;;;;;;6.40;4.17;;;;;;;3.30;85.23;98321.91;5094492;28;20607;-68
2021/04/26 02:00:17;;;;;;;4.97;3.60;;;;;;;3.20;86.04;98341.44;5094354;28;20618;-67
2021/04/26 02:02:44;;;;;;;6.63;4.27;;;;;;;3.14;86.51;98339.06;5094040;28;20210;-67
2021/04/26 02:05:13;;;;;;;6.70;4.60;;;;;;;3.04;87.30;98337.69;5094407;28;20217;-67
2021/04/26 02:07:42;;;;;;;6.93;4.13;;;;;;;2.95;87.98;98338.00;5094363;28;20210;-69
2021/04/26 02:10:10;;;;;;;6.67;4.63;;;;;;;2.86;88.91;98330.50;5094016;28;20208;-69
2021/04/26 02:12:38;;;;;;;7.60;4.90;;;;;;;2.76;89.82;98329.13;5094125;28;20291;-66
2021/04/26 02:15:07;;;;;;;7.93;4.60;;;;;;;2.72;89.92;98343.19;5092446;28;20206;-69
2021/04/26 02:17:33;;;;;;;8.43;4.43;;;;;;;2.65;91.39;98341.72;5094029;28;20697;-67
2021/04/26 02:19:59;;;;;;;6.37;4.07;;;;;;;2.64;91.75;98350.41;5093884;28;20226;-67
2021/04/26 02:22:25;;;;;;;6.70;4.27;;;;;;;2.68;91.71;98352.03;5093750;28;20216;-66
2021/04/26 02:24:52;;;;;;;6.63;4.47;;;;;;;2.71;91.61;98351.06;5094133;28;20221;-67
2021/04/26 02:27:18;;;;;;;6.07;4.23;;;;;;;2.94;88.43;98349.34;5093784;28;20246;-67
2021/04/26 02:29:44;;;;;;;6.27;4.03;;;;;;;3.08;87.06;98344.50;5093757;28;20226;-67
2021/04/26 02:32:15;;;;;;;7.57;4.67;;;;;;;3.06;87.19;98348.91;5093573;28;20672;-66
2021/04/26 02:34:45;;;;;;;9.03;4.90;;;;;;;3.08;87.18;98347.13;5093815;28;20214;-67
2021/04/26 02:37:17;;;;;;;4.73;4.13;;;;;;;3.23;85.66;98356.13;5093750;28;20206;-67
2021/04/26 02:39:46;;;;;;;6.53;4.50;;;;;;;3.30;84.81;98345.41;5093746;28;20276;-67
2021/04/26 02:42:15;;;;;;;6.53;4.10;;;;;;;3.30;84.85;98347.19;5092127;28;20645;-67
2021/04/26 02:44:44;;;;;;;5.73;4.30;;;;;;;3.32;84.82;98347.97;5093631;28;20207;-67
2021/04/26 02:47:15;;;;;;;6.23;4.40;;;;;;;3.17;85.84;98338.94;5093133;28;20213;-67
2021/04/26 02:49:44;;;;;;;7.37;4.87;;;;;;;3.13;86.49;98337.34;5093703;28;20283;-66
2021/04/26 02:52:11;;;;;;;6.67;4.20;;;;;;;3.12;86.41;98340.84;5093356;28;20758;-66
2021/04/26 02:54:38;;;;;;;6.17;4.43;;;;;;;3.16;85.55;98326.78;5093208;28;20679;-67
2021/04/26 02:57:05;;;;;;;7.00;4.30;;;;;;;3.28;83.84;98318.50;5093404;28;20211;-66
2021/04/26 02:59:33;;;;;;;7.03;4.37;;;;;;;3.40;81.88;98320.66;5093457;28;20211;-67
2021/04/26 03:02:00;;;;;;;4.83;3.80;;;;;;;3.42;81.21;98311.00;5093475;28;20231;-67
2021/04/26 03:04:29;;;;;;;7.57;4.40;;;;;;;3.40;81.59;98312.81;5093493;28;20230;-66
2021/04/26 03:06:58;;;;;;;7.80;4.57;;;;;;;3.28;82.48;98312.41;5092742;28;20249;-66
2021/04/26 03:09:24;;;;;;;7.00;4.40;;;;;;;3.12;83.05;98306.91;5092581;28;20211;-67
2021/04/26 03:11:52;;;;;;;5.00;4.27;;;;;;;3.16;82.53;98300.69;5093428;28;20252;-66
2021/04/26 03:14:19;;;;;;;8.63;4.87;;;;;;;3.30;80.93;98306.22;5093210;28;20601;-67
2021/04/26 03:16:47;;;;;;;5.03;4.00;;;;;;;3.16;82.23;98297.19;5093290;28;20615;-66
2021/04/26 03:19:14;;;;;;;7.90;4.90;;;;;;;2.97;84.44;98290.97;5092929;28;20571;-66
2021/04/26 03:21:42;;;;;;;5.57;4.20;;;;;;;2.85;84.73;98292.28;5093086;28;20230;-67
2021/04/26 03:24:09;;;;;;;6.90;4.93;;;;;;;2.79;86.01;98292.50;5093239;28;20211;-69
2021/04/26 03:26:36;;;;;;;7.23;4.67;;;;;;;2.73;86.40;98289.22;5093178;28;20207;-67
2021/04/26 03:29:03;;;;;;;6.77;4.67;;;;;;;2.75;85.00;98290.88;5093166;28;20213;-67
2021/04/26 03:31:30;;;;;;;5.27;4.53;;;;;;;2.69;85.30;98291.09;5092840;28;20676;-67
2021/04/26 03:33:59;;;;;;;6.87;4.43;;;;;;;2.64;85.64;98286.97;5091413;28;20202;-66
2021/04/26 03:36:26;;;;;;;6.73;4.60;;;;;;;2.55;85.35;98288.13;5093021;28;20672;-67
2021/04/26 03:38:52;;;;;;;5.73;4.50;;;;;;;2.45;86.19;98289.34;5092786;28;20214;-67
2021/04/26 03:41:18;;;;;;;6.17;4.53;;;;;;;2.43;87.07;98292.91;5093025;28;20233;-71
2021/04/26 03:43:45;;;;;;;5.43;4.83;;;;;;;2.44;86.68;98279.84;5092803;28;20659;-69
2021/04/26 03:46:12;;;;;;;6.20;4.67;;;;;;;2.39;86.50;98286.97;5092699;28;20202;-68
2021/04/26 03:48:38;;;;;;;8.90;4.60;;;;;;;2.39;86.62;98278.31;5092704;28;20675;-68
2021/04/26 03:51:05;;;;;;;6.27;4.60;;;;;;;2.37;86.28;98286.16;5093022;28;20213;-69
2021/04/26 03:53:31;;;;;;;7.10;4.57;;;;;;;2.32;86.96;98285.47;5093076;28;20214;-68
2021/04/26 03:55:57;;;;;;;6.10;4.67;;;;;;;2.25;87.20;98286.59;5093017;28;20214;-69
2021/04/26 03:58:24;;;;;;;8.83;5.03;;;;;;;2.21;87.21;98287.59;5094581;28;20618;-68
2021/04/26 04:00:50;;;;;;;8.80;4.83;;;;;;;2.14;88.04;98283.47;5095097;28;20600;-68
2021/04/26 04:03:16;;;;;;;7.77;4.47;;;;;;;2.15;87.45;98290.41;5096501;28;20206;-68
2021/04/26 04:05:43;;;;;;;5.70;4.33;;;;;;;2.10;86.88;98284.50;5096661;28;20210;-66
2021/04/26 04:08:10;;;;;;;7.20;5.20;;;;;;;2.15;86.72;98282.56;5096683;28;20225;-66
2021/04/26 04:10:36;;;;;;;7.37;5.10;;;;;;;2.18;85.71;98282.50;5096490;28;20298;-68
2021/04/26 04:13:02;;;;;;;8.17;4.40;;;;;;;2.10;86.65;98292.31;5096467;28;20246;-68
2021/04/26 04:15:29;;;;;;;7.57;4.77;;;;;;;1.98;88.16;98284.91;5096591;28;20258;-67
2021/04/26 04:17:55;;;;;;;5.73;4.43;;;;;;;1.96;89.09;98289.31;5096670;28;20578;-68
2021/04/26 04:20:21;;;;;;;7.77;4.63;;;;;;;1.97;88.69;98296.22;5096341;28;20230;-67
2021/04/26 04:22:47;;;;;;;9.10;4.80;;;;;;;2.04;88.36;98300.34;5096347;28;20301;-68
2021/04/26 04:25:14;;;;;;;7.33;4.70;;;;;;;2.17;86.14;98295.56;5095047;28;20213;-67
2021/04/26 04:27:40;;;;;;;5.73;4.33;;;;;;;2.23;85.24;98285.78;5096035;28;20726;-66
2021/04/26 04:30:09;;;;;;;6.27;4.83;;;;;;;2.20;86.04;98283.28;5096275;28;20606;-68
2021/04/26 04:32:35;;;;;;;6.63;4.33;;;;;;;2.16;86.22;98279.09;5095860;28;20210;-66
2021/04/26 04:35:01;;;;;;;7.17;4.43;;;;;;;2.27;85.82;98276.09;5095906;28;20222;-67
2021/04/26 04:37:27;;;;;;;7.23;4.47;;;;;;;2.38;84.21;98277.44;5096105;28;20210;-66
2021/04/26 04:39:53;;;;;;;6.70;4.73;;;;;;;2.55;82.37;98276.84;5095939;28;20572;-66
2021/04/26 04:42:20;;;;;;;5.23;4.30;;;;;;;2.69;81.29;98279.84;5097217;28;20215;-66
2021/04/26 04:44:46;;;;;;;7.53;4.50;;;;;;;3.00;79.22;98281.25;5100641;28;20211;-67
2021/04/26 04:47:12;;;;;;;7.80;4.67;;;;;;;3.16;78.36;98278.91;5096781;28;20257;-67
2021/04/26 04:49:38;;;;;;;5.17;4.07;;;;;;;3.39;76.44;98269.31;5095667;28;20207;-65
2021/04/26 04:52:05;;;;;;;6.60;4.33;;;;;;;3.59;74.61;98277.22;5094388;28;20207;-65
2021/04/26 04:54:30;;;;;;;7.73;4.13;;;;;;;3.62;74.83;98277.09;5095682;28;20207;-65
2021/04/26 04:56:57;;;;;;;8.80;4.33;;;;;;;3.84;74.83;98277.13;5095728;28;20256;-65
2021/04/26 04:59:24;;;;;;;8.23;4.80;;;;;;;3.96;74.83;98277.47;5095622;28;20261;-65
2021/04/26 05:01:50;;;;;;;7.50;4.27;;;;;;;4.10;74.48;98275.13;5095604;28;20643;-66
2021/04/26 05:04:17;;;;;;;7.23;4.40;;;;;;;4.23;74.12;98275.47;5095339;28;20301;-65
2021/04/26 05:06:43;;;;;;;6.83;4.20;;;;;;;4.38;72.31;98275.69;5095199;28;20692;-66
2021/04/26 05:09:09;;;;;;;8.23;4.57;;;;;;;4.45;72.68;98277.13;5095097;28;20231;-65
2021/04/26 05:11:35;;;;;;;9.77;4.60;;;;;;;4.47;72.27;98275.28;5095363;28;20207;-65
2021/04/26 05:14:01;;;;;;;5.93;4.27;;;;;;;4.45;72.99;98277.13;5095177;28;20266;-66
2021/04/26 05:16:29;;;;;;;8.43;4.80;;;;;;;4.49;72.47;98276.06;5095294;28;20247;-67
2021/04/26 05:18:58;;;;;;;6.30;3.93;;;;;;;4.52;71.71;98273.31;5093593;28;20230;-64
2021/04/26 05:21:24;;;;;;;9.00;4.83;;;;;;;4.66;71.17;98277.97;5094852;28;20234;-64
2021/04/26 05:23:50;;;;;;;5.83;4.13;;;;;;;4.74;70.29;98279.34;5095177;28;20272;-66
2021/04/26 05:26:16;;;;;;;9.20;4.40;;;;;;;5.01;68.73;98280.72;5094923;28;20669;-66
2021/04/26 05:28:42;;;;;;;9.37;4.90;;;;;;;5.06;68.29;98278.75;5094813;28;20207;-66
2021/04/26 05:31:08;;;;;;;10.50;4.37;;;;;;;5.09;69.38;98281.25;5094888;28;20678;-64
2021/04/26 05:33:35;;;;;;;10.17;4.83;;;;;;;5.28;67.45;98287.34;5095044;28;20250;-64
2021/04/26 05:36:01;;;;;;;7.50;4.63;;;;;;;5.32;66.71;98290.66;5094710;28;20687;-64
2021/04/26 05:38:27;;;;;;;8.87;4.57;;;;;;;5.46;66.28;98291.75;5094676;28;20211;-64
2021/04/26 05:40:53;;;;;;;7.20;4.13;;;;;;;5.50;66.22;98289.81;5094762;28;20231;-64
2021/04/26 05:43:19;;;;;;;8.43;4.57;;;;;;;5.60;66.31;98286.69;5093943;28;20223;-68
2021/04/26 05:45:46;;;;;;;5.23;3.83;;;;;;;5.82;64.54;98290.03;5094093;28;20212;-67
2021/04/26 05:48:12;;;;;;;8.97;4.33;;;;;;;6.26;63.04;98286.09;5094762;28;20211;-67
2021/04/26 05:50:39;;;;;;;6.47;3.93;;;;;;;6.94;59.76;98286.06;5094296;28;20249;-67
2021/04/26 05:53:06;;;;;;;4.50;3.53;;;;;;;7.77;59.48;98282.38;5094433;28;20578;-67
2021/04/26 05:55:32;;;;;;;6.27;3.90;;;;;;;8.64;55.55;98293.09;5094550;28;20741;-69
2021/04/26 05:57:58;;;;;;;5.50;3.73;;;;;;;9.07;52.90;98282.53;5094690;28;20210;-69
2021/04/26 06:00:24;;;;;;;6.97;3.93;;;;;;;9.52;51.21;98284.13;5094878;28;20287;-68
2021/04/26 06:02:50;;;;;;;6.03;3.67;;;;;;;9.82;51.16;98287.47;5094922;28;20221;-68
2021/04/26 06:05:16;;;;;;;6.10;3.90;;;;;;;10.21;48.89;98284.94;5094800;28;20245;-67
2021/04/26 06:07:43;;;;;;;8.33;4.63;;;;;;;10.54;49.10;98286.22;5094222;28;20300;-68
2021/04/26 06:10:09;;;;;;;5.07;4.03;;;;;;;11.12;47.67;98283.13;5092634;28;20210;-67
2021/04/26 06:12:36;;;;;;;5.50;3.97;;;;;;;11.58;47.46;98282.47;5093990;28;20211;-69
2021/04/26 06:15:03;;;;;;;6.10;3.67;;;;;;;11.94;45.93;98285.16;5094362;28;20240;-69
2021/04/26 06:17:28;;;;;;;6.77;3.70;;;;;;;11.99;44.98;98280.34;5094219;28;20230;-69
2021/04/26 06:19:54;;;;;;;5.83;3.60;;;;;;;11.91;43.73;98284.50;5093955;28;20660;-67
2021/04/26 06:22:20;;;;;;;4.83;3.60;;;;;;;11.91;45.25;98284.50;5093664;28;20252;-67
2021/04/26 06:24:47;;;;;;;6.40;3.90;;;;;;;11.80;45.21;98287.09;5094067;28;20250;-67
2021/04/26 06:27:13;;;;;;;5.33;4.27;;;;;;;11.02;46.04;98285.53;5094081;28;20211;-67
2021/04/26 06:29:39;;;;;;;6.80;3.80;;;;;;;9.83;48.40;98291.78;5094033;28;20324;-68
2021/04/26 06:32:05;;;;;;;5.00;3.70;;;;;;;8.94;53.44;98288.66;5093667;28;20231;-67
2021/04/26 06:34:31;;;;;;;5.60;3.40;;;;;;;8.43;51.62;98284.66;5093711;28;20215;-67
2021/04/26 06:36:57;;;;;;;4.97;3.57;;;;;;;8.02;53.45;98290.59;5092100;28;20254;-67
2021/04/26 06:39:24;;;;;;;7.50;4.07;;;;;;;7.79;58.22;98293.66;5093878;28;20211;-67
2021/04/26 06:41:51;;;;;;;6.73;4.17;;;;;;;7.81;60.19;98292.63;5093787;28;20230;-67
2021/04/26 06:44:16;;;;;;;4.83;4.30;;;;;;;7.84;57.21;98295.06;5093543;28;20211;-68
2021/04/26 06:46:42;;;;;;;8.33;4.20;;;;;;;7.75;55.93;98297.38;5093469;28;20195;-67
2021/04/26 06:49:08;;;;;;;5.67;4.40;;;;;;;7.69;60.68;98303.84;5093647;28;20211;-67
2021/04/26 06:51:34;;;;;;;5.80;4.17;;;;;;;7.72;59.30;98294.94;5093644;28;20709;-67
2021/04/26 06:54:00;;;;;;;6.47;4.73;;;;;;;7.82;61.42;98304.00;5093709;28;20207;-68
2021/04/26 06:56:26;;;;;;;6.73;4.53;;;;;;;7.94;58.16;98290.16;5093313;28;20294;-67
2021/04/26 06:58:53;;;;;;;7.83;4.37;;;;;;;7.95;59.75;98287.44;5093549;28;20214;-68
2021/04/26 07:01:19;;;;;;;8.00;4.40;;;;;;;8.00;60.48;98290.66;5093130;28;20226;-66
2021/04/26 07:03:45;;;;;;;7.47;4.70;;;;;;;8.09;59.18;98290.13;5088889;28;20257;-67
2021/04/26 07:06:11;;;;;;;4.77;4.30;;;;;;;8.13;59.16;98298.69;5092346;28;20592;-68
2021/04/26 07:08:37;;;;;;;6.17;4.90;;;;;;;8.15;59.64;98296.84;5091889;28;20214;-68
2021/04/26 07:11:03;;;;;;;7.80;5.43;;;;;;;8.30;60.10;98285.47;5091773;28;20224;-68
2021/04/26 07:13:29;;;;;;;6.27;4.50;;;;;;;8.45;61.30;98287.22;5086644;28;20246;-69
2021/04/26 07:15:56;;;;;;;6.13;4.67;;;;;;;8.49;58.83;98280.81;5088231;28;20218;-68
2021/04/26 07:18:22;;;;;;;7.90;4.90;;;;;;;8.57;59.92;98273.34;5092483;28;20627;-66
2021/04/26 07:20:50;;;;;;;5.43;4.00;;;;;;;8.64;56.93;98264.13;5079872;28;20236;-68
2021/04/26 07:23:18;;;;;;;5.53;4.10;;;;;;;8.61;55.81;98261.66;5073267;28;20208;-69
2021/04/26 07:25:44;;;;;;;5.37;4.23;;;;;;;8.76;56.00;98268.66;5090282;28;20218;-67
2021/04/26 07:28:10;;;;;;;6.70;4.60;;;;;;;8.75;57.78;98262.53;5089393;28;20222;-68
2021/04/26 07:30:36;;;;;;;5.50;4.30;;;;;;;8.98;55.71;98255.88;5090749;28;20676;-67
2021/04/26 07:33:03;;;;;;;5.03;4.10;;;;;;;9.01;59.59;98258.34;5094630;28;20206;-67
2021/04/26 07:35:29;;;;;;;6.00;3.90;;;;;;;8.99;56.37;98250.50;5096434;28;20206;-67
2021/04/26 07:37:55;;;;;;;6.67;4.43;;;;;;;9.15;60.71;98250.41;5096830;28;20234;-67
2021/04/26 07:40:21;;;;;;;10.13;4.30;;;;;;;9.21;54.02;98260.59;5096576;28;20210;-68
2021/04/26 07:42:47;;;;;;;6.40;4.10;;;;;;;9.27;58.50;98257.56;5096600;28;20215;-67
2021/04/26 07:45:19;;;;;;;5.10;4.60;;;;;;;9.34;55.85;98251.84;5096450;28;20256;-69
2021/04/26 07:47:45;;;;;;;6.57;4.50;;;;;;;9.60;57.39;98252.84;5095173;28;20230;-68
2021/04/26 07:50:13;;;;;;;6.57;4.77;;;;;;;9.74;59.06;98247.53;5094235;28;20573;-68
2021/04/26 07:52:39;;;;;;;6.53;4.57;;;;;;;9.82;57.94;98250.50;5096405;28;20574;-69
2021/04/26 07:55:06;;;;;;;6.43;4.57;;;;;;;9.86;55.53;98246.75;5094751;28;20251;-69
2021/04/26 07:57:32;;;;;;;4.17;3.77;;;;;;;10.01;54.40;98243.94;5096582;28;20206;-69
2021/04/26 07:59:58;;;;;;;7.83;4.27;;;;;;;10.01;52.19;98241.31;5096099;28;20694;-69
2021/04/26 08:02:25;;;;;;;8.00;4.60;;;;;;;9.97;52.32;98242.44;5096143;28;20281;-69
2021/04/26 08:04:51;;;;;;;7.20;4.77;;;;;;;10.13;55.56;98242.31;5102032;28;20279;-70
2021/04/26 08:07:17;;;;;;;6.07;4.17;;;;;;;10.32;57.05;98238.38;5102297;28;20251;-70
2021/04/26 08:09:44;;;;;;;5.70;4.23;;;;;;;10.31;53.41;98235.81;5096381;28;20210;-70
2021/04/26 08:12:10;;;;;;;6.80;4.47;;;;;;;10.39;52.45;98236.19;5096212;28;20212;-70
2021/04/26 08:14:36;;;;;;;5.73;4.50;;;;;;;10.54;56.98;98233.38;5096154;28;20238;-72
2021/04/26 08:17:02;;;;;;;5.57;4.47;;;;;;;10.61;53.82;98229.34;5095840;28;20633;-71
2021/04/26 08:19:28;;;;;;;5.50;4.13;;;;;;;10.63;53.31;98237.16;5095580;28;20245;-71
2021/04/26 08:21:54;;;;;;;7.10;4.80;;;;;;;10.68;52.10;98224.47;5094147;28;20243;-70
2021/04/26 08:24:21;;;;;;;5.63;4.67;;;;;;;10.83;52.45;98224.28;5095678;28;20299;-70
2021/04/26 08:26:47;;;;;;;6.43;4.80;;;;;;;10.91;56.09;98227.25;5095836;28;20212;-70
2021/04/26 08:29:13;;;;;;;7.93;4.77;;;;;;;10.89;53.89;98228.31;5095757;28;20264;-70
2021/04/26 08:31:39;;;;;;;6.80;4.10;;;;;;;10.86;51.32;98215.28;5095526;28;20208;-70
2021/04/26 08:34:05;;;;;;;6.07;4.80;;;;;;;11.23;54.84;98217.06;5095659;28;20301;-69
2021/04/26 08:36:31;;;;;;;6.23;4.37;;;;;;;11.16;50.33;98215.81;5095280;28;20631;-69
2021/04/26 08:38:57;;;;;;;6.67;4.60;;;;;;;11.23;51.35;98217.06;5095329;28;20258;-70
2021/04/26 08:41:24;;;;;;;7.63;4.90;;;;;;;11.25;53.70;98217.81;5095468;28;20263;-69
2021/04/26 08:43:50;;;;;;;7.53;4.77;;;;;;;11.29;48.93;98220.13;5094748;28;20239;-69
2021/04/26 08:46:17;;;;;;;7.37;3.83;;;;;;;11.25;50.29;98221.28;5095500;28;20207;-69
2021/04/26 08:48:43;;;;;;;5.97;4.37;;;;;;;11.39;51.28;98207.94;5093823;28;20730;-68
2021/04/26 08:51:09;;;;;;;5.77;4.77;;;;;;;11.36;48.37;98212.59;5095358;28;20211;-69
2021/04/26 08:53:35;;;;;;;7.80;5.00;;;;;;;11.36;49.98;98212.59;5095296;28;20267;-69
2021/04/26 08:56:01;;;;;;;6.77;5.10;;;;;;;11.47;50.84;98202.94;5095007;28;20207;-70
2021/04/26 08:58:29;;;;;;;6.60;5.27;;;;;;;11.50;50.35;98209.81;5095124;28;20247;-69
2021/04/26 09:00:55;;;;;;;6.73;4.67;;;;;;;11.48;50.48;98203.78;5095064;28;20242;-70
2021/04/26 09:03:30;;;;;;;5.77;4.87;;;;;;;11.47;49.14;98204.75;5095008;28;20597;-69
2021/04/26 09:05:56;;;;;;;5.33;4.60;;;;;;;11.51;52.44;98203.56;5095067;28;20206;-69
2021/04/26 09:08:23;;;;;;;6.20;4.80;;;;;;;11.70;52.43;98207.47;5095184;28;20207;-68
2021/04/26 09:10:51;;;;;;;6.87;5.03;;;;;;;11.84;51.97;98198.50;5094816;28;20207;-68
2021/04/26 09:13:32;;;;;;;5.20;4.70;;;;;;;12.00;53.22;98201.72;5094776;28;20272;-67
2021/04/26 09:16:01;;;;;;;5.20;4.57;;;;;;;12.09;48.88;98190.44;5092674;28;20203;-69
2021/04/26 09:18:48;;;;;;;5.07;4.57;;;;;;;12.01;47.93;98200.75;5094511;28;20207;-70
2021/04/26 09:21:17;;;;;;;5.93;4.93;;;;;;;12.09;54.56;98201.03;5094569;28;20290;-70
2021/04/26 09:23:43;;;;;;;6.20;4.57;;;;;;;12.32;48.85;98200.16;5094032;28;20217;-71
2021/04/26 09:26:26;;;;;;;6.60;4.83;;;;;;;12.16;50.47;98199.66;5094597;28;20211;-70
2021/04/26 09:29:18;;;;;;;7.17;5.13;;;;;;;12.17;50.32;98190.72;5094592;28;20207;-70
2021/04/26 09:32:00;;;;;;;7.47;4.90;;;;;;;12.23;50.55;98195.56;5094137;28;20210;-69
2021/04/26 09:34:32;;;;;;;5.50;4.90;;;;;;;12.33;50.72;98188.59;5094256;28;20219;-71
2021/04/26 09:37:08;;;;;;;6.37;4.63;;;;;;;12.36;47.57;98180.44;5094140;28;20216;-71
2021/04/26 09:39:36;;;;;;;7.67;4.80;;;;;;;12.46;46.97;98186.75;5094008;28;20619;-71
2021/04/26 09:42:02;;;;;;;8.00;4.70;;;;;;;12.26;46.06;98184.72;5092221;28;20286;-71
2021/04/26 09:44:29;;;;;;;7.57;4.90;;;;;;;12.17;45.83;98180.13;5094405;28;20209;-71
2021/04/26 09:46:55;;;;;;;5.70;5.00;;;;;;;12.39;48.34;98181.06;5094067;28;20211;-71
2021/04/26 09:49:23;;;;;;;7.63;4.93;;;;;;;12.69;49.33;98177.84;5093620;28;20702;-71
2021/04/26 09:51:52;;;;;;;5.43;4.90;;;;;;;12.82;51.91;98175.94;5093181;28;20213;-71
2021/04/26 09:54:33;;;;;;;6.30;4.40;;;;;;;12.87;47.25;98171.13;5093984;28;20220;-71
2021/04/26 09:57:00;;;;;;;6.03;4.77;;;;;;;13.04;51.57;98176.00;5092889;28;20214;-71
2021/04/26 09:59:27;;;;;;;8.43;5.20;;;;;;;13.27;50.32;98167.09;5093609;28;20680;-71
2021/04/26 10:01:54;;;;;;;7.37;4.97;;;;;;;13.38;46.91;98162.59;5093674;28;20299;-71
2021/04/26 10:04:21;;;;;;;5.90;4.57;;;;;;;13.17;44.37;98174.94;5093867;28;20214;-71
2021/04/26 10:06:47;;;;;;;5.80;4.73;;;;;;;13.02;45.43;98167.34;5093963;28;20236;-71
2021/04/26 10:09:14;;;;;;;5.10;4.60;;;;;;;13.19;43.91;98164.19;5092339;28;20214;-71
2021/04/26 10:11:40;;;;;;;7.13;5.20;;;;;;;13.38;49.78;98164.44;5093719;28;20275;-71
2021/04/26 10:14:08;;;;;;;5.10;4.57;;;;;;;13.56;45.83;98165.63;5092952;28;20586;-71
2021/04/26 10:16:39;;;;;;;5.80;4.83;;;;;;;13.61;44.79;98166.06;5093201;28;20215;-71
2021/04/26 10:19:07;;;;;;;5.50;4.50;;;;;;;13.80;47.20;98155.63;5093458;28;20583;-71
2021/04/26 10:21:35;;;;;;;5.80;4.60;;;;;;;13.88;47.53;98155.88;5093544;28;20234;-71
2021/04/26 10:24:16;;;;;;;6.47;5.00;;;;;;;14.01;51.05;98157.41;5093302;28;20248;-71
2021/04/26 10:26:47;;;;;;;6.00;4.90;;;;;;;14.12;48.71;98148.53;5093396;28;20214;-70
2021/04/26 10:29:16;;;;;;;6.40;4.90;;;;;;;14.22;48.47;98144.16;5093169;28;20214;-71
2021/04/26 10:32:08;;;;;;;5.67;4.17;;;;;;;14.26;40.58;98145.59;5093322;28;20643;-69
2021/04/26 10:34:37;;;;;;;6.17;4.43;;;;;;;14.14;41.70;98135.94;5093220;28;20220;-70
2021/04/26 10:37:05;;;;;;;5.60;4.63;;;;;;;14.11;41.07;98141.53;5090058;28;20214;-70
2021/04/26 10:39:33;;;;;;;6.20;4.47;;;;;;;13.95;44.27;98141.97;5090920;28;20211;-70
2021/04/26 10:42:08;;;;;;;6.13;4.57;;;;;;;14.33;47.78;98136.13;5091959;28;20234;-70
2021/04/26 10:44:53;;;;;;;5.53;4.57;;;;;;;14.28;44.66;98123.22;5092152;28;20237;-70
2021/04/26 10:47:24;;;;;;;6.83;4.20;;;;;;;14.30;44.43;98121.28;5085806;28;20643;-70
2021/04/26 10:49:53;;;;;;;5.70;3.67;;;;;;;14.31;40.34;98122.94;5070523;28;20211;-70
2021/04/26 10:52:41;;;;;;;4.83;4.13;;;;;;;14.58;41.50;98120.63;5071758;28;20207;-70
2021/04/26 10:55:10;;;;;;;5.00;4.30;;;;;;;14.78;39.24;98127.72;5066117;28;20211;-70
2021/04/26 10:57:39;;;;;;;5.07;3.90;;;;;;;14.41;39.41;98112.38;5071437;28;20207;-70
2021/04/26 11:00:43;;;;;;;5.57;4.27;;;;;;;14.68;43.32;98110.03;5071331;28;20210;-70
2021/04/26 11:03:46;;;;;;;5.67;4.67;;;;;;;14.80;43.18;98095.69;5069819;28;20718;-71
2021/04/26 11:06:18;;;;;;;5.17;3.83;;;;;;;14.78;39.13;98090.47;5071810;28;20211;-71
2021/04/26 11:08:48;;;;;;;4.70;3.90;;;;;;;14.83;41.43;98093.59;5070473;28;20223;-70
2021/04/26 11:11:17;;;;;;;6.10;4.43;;;;;;;14.88;40.83;98093.19;5071307;28;20225;-71
2021/04/26 11:13:57;;;;;;;5.23;4.47;;;;;;;14.69;37.80;98082.47;5071540;28;20246;-70
2021/04/26 11:16:27;;;;;;;5.07;4.20;;;;;;;14.56;41.06;98077.38;5070904;28;20214;-70
2021/04/26 11:19:08;;;;;;;5.57;4.00;;;;;;;14.78;42.14;98068.38;5071584;28;20214;-70
2021/04/26 11:21:58;;;;;;;5.83;4.37;;;;;;;14.93;39.00;98064.34;5071914;28;20331;-70
2021/04/26 11:25:00;;;;;;;5.93;4.00;;;;;;;14.81;37.47;98054.78;5070477;28;20625;-70
2021/04/26 11:27:26;;;;;;;5.63;4.10;;;;;;;14.66;38.35;98051.63;5069156;28;20215;-70
2021/04/26 11:30:17;;;;;;;5.37;4.23;;;;;;;14.78;41.58;98047.09;5068567;28;20210;-70
2021/04/26 11:32:58;;;;;;;7.57;4.37;;;;;;;14.93;43.85;98046.59;5070483;28;20261;-70
2021/04/26 11:35:25;;;;;;;6.17;4.03;;;;;;;15.10;40.12;98037.09;5078363;28;20210;-70
2021/04/26 11:37:53;;;;;;;5.87;4.20;;;;;;;15.30;41.28;98041.50;5089635;28;20579;-70
2021/04/26 11:40:20;;;;;;;4.80;4.03;;;;;;;15.29;39.49;98042.47;5090337;28;20202;-70
2021/04/26 11:42:47;;;;;;;6.23;4.00;;;;;;;15.28;38.34;98030.16;5089707;28;20284;-71
2021/04/26 11:45:14;;;;;;;4.33;3.70;;;;;;;15.24;37.17;98034.03;5090146;28;20738;-70